SKSP/ADZ METAR and TAF weather

Enter ICAO airport designator
Station Type Date Time Source
SKSP METAR 2020/04/09 09:00 UTC NOAA

SKSP 090900Z 05010KT 9999 FEW017 27/23 A2986


Station Type Date Time Source
SKSP Decoded METAR 2020/04/09 09:00 UTC NOAA

San Andres Isla / Sesquicentenario, Colombia (SKSP) 12-35N 081-43W 6M
Apr 09, 2020 - 05:00 AM EDT / 2020.04.09 0900 UTC
Wind: from the NE (050 degrees) at 12 MPH (10 KT):0
Visibility: greater than 7 mile(s):0
Sky conditions: mostly clear
Temperature: 80 F (27 C)
Dew Point: 73 F (23 C)
Relative Humidity: 78%
Pressure (altimeter): 29.86 in. Hg (1011 hPa)
ob: SKSP 090900Z 05010KT 9999 FEW017 27/23 A2986
cycle: 9

Station Type Date Time Source
SKSP TAF 2020/04/09 06:40 UTC NOAA

TAF SKSP 090430Z 0906/1006 05010KT 9999 FEW018
TEMPO 0906/0909 DZ SCT014
TEMPO 0918/0920 DZ SCT017TCU TX31/0918Z TN27/0910Z

Example: see airport list